Mattoon, Illinois
Current Conditions -  °F | °C
As of 3:53 AM on Friday 19 Dec 2014 (Local Time) from KMTO Reporting Station
Haze Haze  
Wind Chill: 16°   Ceiling: Unl
Heat Index: 23°   Visibility: 6mi
Dew Point: 19°   Wind: 6mph
Humidity: 85%   Direction: 10°N
Pressure: 30.28"   Gusts: NA
Location:  39.48°N, 88.37°W
Report Text: KMTO 190953Z AUTO 01005KT 6SM BR CLR M05/M07 A3028 RMK AO2 SLP262 T10501072
Loading
Personal Weather Stations






























Interactive Weather Map New forecast layout! Learn more

10-Day Weather Forecast

Advertisements
Track Severe Weather on mobile